GQPA/ATR METAR and TAF weather

Enter ICAO airport designator
Station Type Date Time Source
GQPA METAR 2020/01/27 18:00 UTC NOAA

GQPA 271800Z 10012KT 7000 NSC 32/02 Q1017


Station Type Date Time Source
GQPA Decoded METAR 2020/01/27 18:00 UTC NOAA

Atar, Mauritania (GQPA) 20-31N 013-04W 224M
Jan 27, 2020 - 01:00 PM EST / 2020.01.27 1800 UTC
Wind: from the E (100 degrees) at 14 MPH (12 KT):0
Visibility: 4 mile(s):0
Temperature: 89 F (32 C)
Dew Point: 35 F (2 C)
Relative Humidity: 14%
Pressure (altimeter): 30.03 in. Hg (1017 hPa)
ob: GQPA 271800Z 10012KT 7000 NSC 32/02 Q1017
cycle: 18

Station Type Date Time Source
GQPA TAF UTC NOAA

Error!

Example: see airport list